createdAt,value
2017-08-12T00:00:02.781Z,15.47
2017-08-12T00:02:31.841Z,15.38
2017-08-12T00:05:00.963Z,15.40
2017-08-12T00:07:29.283Z,15.38
2017-08-12T00:09:57.623Z,15.37
2017-08-12T00:12:25.957Z,15.38
2017-08-12T00:14:54.868Z,15.38
2017-08-12T00:17:23.216Z,15.38
2017-08-12T00:19:51.542Z,15.42
2017-08-12T00:22:19.883Z,15.45
2017-08-12T00:24:48.216Z,15.38
2017-08-12T00:27:16.570Z,15.43
2017-08-12T00:29:44.948Z,15.35
2017-08-12T00:32:15.000Z,15.34
2017-08-12T00:34:43.324Z,15.37
2017-08-12T00:37:11.669Z,15.48
2017-08-12T00:39:40.010Z,15.45
2017-08-12T00:42:08.394Z,15.48
2017-08-12T00:44:36.756Z,15.41
2017-08-12T00:47:05.848Z,15.45
2017-08-12T00:49:34.433Z,15.44
2017-08-12T00:52:03.541Z,15.51
2017-08-12T00:54:31.986Z,15.39
2017-08-12T00:57:00.335Z,15.31
2017-08-12T00:59:28.660Z,15.28
2017-08-12T01:01:57.023Z,15.40
2017-08-12T01:04:25.389Z,15.38
2017-08-12T01:06:53.768Z,15.45
2017-08-12T01:09:22.111Z,15.42
2017-08-12T01:11:50.487Z,15.41
2017-08-12T01:14:18.888Z,15.47
2017-08-12T01:16:47.227Z,15.37
2017-08-12T01:19:16.359Z,15.23
2017-08-12T01:21:44.690Z,15.33
2017-08-12T01:24:14.325Z,15.27
2017-08-12T01:26:42.648Z,15.28
2017-08-12T01:29:10.975Z,15.20
2017-08-12T01:31:40.079Z,15.24
2017-08-12T01:34:08.407Z,15.37
2017-08-12T01:36:37.428Z,15.25
2017-08-12T01:39:05.793Z,15.26
2017-08-12T01:41:34.156Z,15.33
2017-08-12T01:44:02.533Z,15.30
2017-08-12T01:46:30.876Z,15.26
2017-08-12T01:48:59.256Z,15.31
2017-08-12T01:51:27.597Z,15.24
2017-08-12T01:53:55.962Z,15.15
2017-08-12T01:56:24.318Z,15.20
2017-08-12T01:58:52.711Z,15.22
2017-08-12T02:01:21.190Z,15.18
2017-08-12T02:03:49.594Z,15.18
2017-08-12T02:06:17.944Z,15.17
2017-08-12T02:08:46.291Z,15.13
2017-08-12T02:11:15.701Z,15.11
2017-08-12T02:13:44.036Z,15.02
2017-08-12T02:16:12.377Z,15.07
2017-08-12T02:18:40.723Z,15.03
2017-08-12T02:21:09.849Z,15.15
2017-08-12T02:23:38.218Z,15.04
2017-08-12T02:26:06.573Z,14.85
2017-08-12T02:28:34.938Z,14.83
2017-08-12T02:31:03.293Z,14.83
2017-08-12T02:33:31.630Z,14.82
2017-08-12T02:36:00.754Z,14.90
2017-08-12T02:38:29.081Z,15.02
2017-08-12T02:40:57.432Z,14.93
2017-08-12T02:43:25.765Z,14.93
2017-08-12T02:45:54.111Z,14.93
2017-08-12T02:48:22.532Z,14.94
2017-08-12T02:50:50.866Z,14.85
2017-08-12T02:53:19.220Z,14.85
2017-08-12T02:55:47.552Z,14.76
2017-08-12T02:58:15.918Z,14.82
2017-08-12T03:01:03.896Z,14.92
2017-08-12T03:03:32.244Z,14.83
2017-08-12T03:06:00.592Z,14.79
2017-08-12T03:08:29.602Z,14.77
2017-08-12T03:10:57.953Z,14.66
2017-08-12T03:13:26.280Z,14.69
2017-08-12T03:15:55.437Z,14.73
2017-08-12T03:18:23.774Z,14.76
2017-08-12T03:20:52.120Z,14.75
2017-08-12T03:23:20.456Z,14.74
2017-08-12T03:25:48.805Z,14.66
2017-08-12T03:28:17.920Z,14.79
2017-08-12T03:30:46.248Z,14.83
2017-08-12T03:33:14.591Z,14.92
2017-08-12T03:35:42.943Z,14.89
2017-08-12T03:38:12.052Z,14.69
2017-08-12T03:40:40.385Z,14.65
2017-08-12T03:43:09.026Z,14.64
2017-08-12T03:45:37.429Z,14.59
2017-08-12T03:48:05.755Z,14.61
2017-08-12T03:50:34.893Z,14.70
2017-08-12T03:53:03.206Z,14.68
2017-08-12T03:55:31.557Z,14.72
2017-08-12T03:57:59.879Z,14.81
2017-08-12T04:00:28.248Z,14.75
2017-08-12T04:02:56.594Z,14.73
2017-08-12T04:05:28.575Z,14.83
2017-08-12T04:07:56.947Z,14.84
2017-08-12T04:10:25.280Z,14.76
2017-08-12T04:12:53.658Z,14.85
2017-08-12T04:15:23.525Z,14.76
2017-08-12T04:17:51.897Z,14.81
2017-08-12T04:20:20.275Z,14.80
2017-08-12T04:22:48.595Z,14.85
2017-08-12T04:25:16.935Z,14.79
2017-08-12T04:27:45.259Z,14.75
2017-08-12T04:30:13.618Z,14.76
2017-08-12T04:32:41.958Z,14.78
2017-08-12T04:35:10.320Z,14.83
2017-08-12T04:37:38.687Z,14.75
2017-08-12T04:40:07.025Z,14.68
2017-08-12T04:42:35.390Z,14.68
2017-08-12T04:45:03.739Z,14.65
2017-08-12T04:47:32.101Z,14.69
2017-08-12T04:50:01.193Z,14.73
2017-08-12T04:52:29.536Z,14.77
2017-08-12T04:54:57.915Z,14.70
2017-08-12T04:57:26.230Z,14.60
2017-08-12T04:59:55.351Z,14.59
2017-08-12T05:02:23.684Z,14.50
2017-08-12T05:04:52.407Z,14.39
2017-08-12T05:07:20.771Z,14.42
2017-08-12T05:09:49.101Z,14.43
2017-08-12T05:12:17.441Z,14.31
2017-08-12T05:14:46.532Z,14.35
2017-08-12T05:17:14.886Z,14.31
2017-08-12T05:19:43.224Z,14.28
2017-08-12T05:22:11.568Z,14.38
2017-08-12T05:24:41.342Z,14.30
2017-08-12T05:27:09.678Z,14.30
2017-08-12T05:29:38.046Z,14.19
2017-08-12T05:32:06.382Z,14.21
2017-08-12T05:34:34.757Z,14.24
2017-08-12T05:37:03.076Z,14.24
2017-08-12T05:39:32.180Z,14.22
2017-08-12T05:42:00.532Z,14.26
2017-08-12T05:44:28.856Z,14.30
2017-08-12T05:46:57.202Z,14.30
2017-08-12T05:49:25.567Z,14.29
2017-08-12T05:51:53.916Z,14.42
2017-08-12T05:54:22.236Z,14.47
2017-08-12T05:56:50.584Z,14.43
2017-08-12T05:59:18.932Z,14.50
2017-08-12T06:01:47.260Z,14.46
2017-08-12T06:04:15.672Z,14.53
2017-08-12T06:06:44.016Z,14.51
2017-08-12T06:09:12.390Z,14.61
2017-08-12T06:11:40.711Z,14.64
2017-08-12T06:14:09.860Z,14.69
2017-08-12T06:16:38.224Z,14.72
2017-08-12T06:19:06.568Z,14.83
2017-08-12T06:21:34.943Z,14.76
2017-08-12T06:24:03.285Z,14.85
2017-08-12T06:26:31.647Z,14.94
2017-08-12T06:29:00.005Z,14.92
2017-08-12T06:31:28.385Z,14.88
2017-08-12T06:33:56.750Z,14.97
2017-08-12T06:36:25.099Z,15.03
2017-08-12T06:38:53.469Z,15.03
2017-08-12T06:41:21.796Z,15.03
2017-08-12T06:43:50.145Z,15.04
2017-08-12T06:46:18.479Z,14.98
2017-08-12T06:48:46.823Z,15.02
2017-08-12T06:51:15.222Z,15.02
2017-08-12T06:53:43.566Z,15.14
2017-08-12T06:56:12.273Z,15.16
2017-08-12T06:58:40.611Z,15.20
2017-08-12T07:01:08.971Z,15.27
2017-08-12T07:03:37.951Z,15.38
2017-08-12T07:06:06.714Z,15.50
2017-08-12T07:08:35.054Z,15.59
2017-08-12T07:11:03.384Z,15.59
2017-08-12T07:13:31.827Z,15.69
2017-08-12T07:16:00.158Z,15.82
2017-08-12T07:18:28.946Z,15.94
2017-08-12T07:20:57.281Z,15.81
2017-08-12T07:23:26.464Z,15.77
2017-08-12T07:25:54.808Z,15.86
2017-08-12T07:28:23.166Z,15.80
2017-08-12T07:30:51.517Z,15.85
2017-08-12T07:33:19.845Z,15.92
2017-08-12T07:35:48.189Z,15.80
2017-08-12T07:38:16.541Z,15.81
2017-08-12T07:40:44.886Z,15.76
2017-08-12T07:43:13.314Z,15.81
2017-08-12T07:45:41.648Z,15.80
2017-08-12T07:48:10.015Z,15.79
2017-08-12T07:50:38.334Z,15.78
2017-08-12T07:53:06.687Z,15.81
2017-08-12T07:55:35.033Z,15.65
2017-08-12T07:58:03.400Z,15.65
2017-08-12T08:00:31.733Z,15.57
2017-08-12T08:03:00.047Z,15.52
2017-08-12T08:05:28.412Z,15.55
2017-08-12T08:07:56.741Z,15.56
2017-08-12T08:10:25.101Z,15.54
2017-08-12T08:12:54.235Z,15.49
2017-08-12T08:15:22.589Z,15.54
2017-08-12T08:17:50.958Z,15.52
2017-08-12T08:20:19.296Z,15.52
2017-08-12T08:22:47.649Z,15.53
2017-08-12T08:25:15.985Z,15.50
2017-08-12T08:27:46.009Z,15.54
2017-08-12T08:30:14.368Z,15.46
2017-08-12T08:32:42.706Z,15.52
2017-08-12T08:35:11.061Z,15.52
2017-08-12T08:37:40.166Z,15.54
2017-08-12T08:40:08.515Z,15.60
2017-08-12T08:42:36.877Z,15.59
2017-08-12T08:45:05.246Z,15.56
2017-08-12T08:47:33.612Z,15.58
2017-08-12T08:50:01.962Z,15.66
2017-08-12T08:52:30.326Z,15.66
2017-08-12T08:54:59.416Z,15.74
2017-08-12T08:57:27.776Z,15.81
2017-08-12T08:59:56.120Z,15.79
2017-08-12T09:02:24.466Z,15.85
2017-08-12T09:04:54.102Z,15.92
2017-08-12T09:07:22.440Z,15.78
2017-08-12T09:09:51.584Z,15.76
2017-08-12T09:12:19.926Z,15.81
2017-08-12T09:14:48.280Z,15.93
2017-08-12T09:17:16.628Z,15.89
2017-08-12T09:19:45.008Z,15.98
2017-08-12T09:22:13.357Z,16.05
2017-08-12T09:24:41.689Z,15.99
2017-08-12T09:27:10.038Z,16.02
2017-08-12T09:29:38.369Z,16.13
2017-08-12T09:32:06.740Z,16.12
2017-08-12T09:34:35.063Z,16.20
2017-08-12T09:37:03.420Z,16.16
2017-08-12T09:39:31.780Z,16.23
2017-08-12T09:42:00.111Z,16.23
2017-08-12T09:44:28.464Z,16.12
2017-08-12T09:46:57.601Z,16.15
2017-08-12T09:49:26.017Z,16.18
2017-08-12T09:51:54.383Z,16.16
2017-08-12T09:54:22.753Z,16.17
2017-08-12T09:56:51.108Z,16.19
2017-08-12T09:59:19.431Z,16.21
2017-08-12T10:01:47.765Z,16.23
2017-08-12T10:04:16.110Z,16.27
2017-08-12T10:06:45.223Z,16.31
2017-08-12T10:09:13.544Z,16.41
2017-08-12T10:11:41.921Z,16.45
2017-08-12T10:14:10.280Z,16.52
2017-08-12T10:16:38.618Z,16.51
2017-08-12T10:19:07.738Z,16.46
2017-08-12T10:21:36.067Z,16.44
2017-08-12T10:24:04.832Z,16.55
2017-08-12T10:26:33.171Z,16.53
2017-08-12T10:29:01.516Z,16.59
2017-08-12T10:31:29.929Z,16.53
2017-08-12T10:33:58.263Z,16.58
2017-08-12T10:36:26.685Z,16.49
2017-08-12T10:38:55.045Z,16.50
2017-08-12T10:41:23.755Z,16.55
2017-08-12T10:43:52.108Z,16.63
2017-08-12T10:46:20.442Z,16.76
2017-08-12T10:48:48.793Z,16.80
2017-08-12T10:51:17.898Z,16.87
2017-08-12T10:53:46.257Z,16.91
2017-08-12T10:56:14.593Z,16.95
2017-08-12T10:58:43.350Z,16.97
2017-08-12T11:01:11.672Z,16.97
2017-08-12T11:03:40.006Z,16.88
2017-08-12T11:06:09.111Z,16.89
2017-08-12T11:08:37.427Z,16.93
2017-08-12T11:11:05.782Z,16.99
2017-08-12T11:13:34.120Z,16.93
2017-08-12T11:16:02.500Z,16.86
2017-08-12T11:18:31.644Z,16.90
2017-08-12T11:20:59.995Z,16.91
2017-08-12T11:23:28.358Z,16.85
2017-08-12T11:25:56.699Z,16.89
2017-08-12T11:28:25.062Z,17.05
2017-08-12T11:30:53.407Z,17.01
2017-08-12T11:33:22.526Z,17.06
2017-08-12T11:35:50.853Z,17.10
2017-08-12T11:38:19.197Z,17.13
2017-08-12T11:40:48.134Z,17.22
2017-08-12T11:43:16.520Z,17.25
2017-08-12T11:45:44.860Z,17.16
2017-08-12T11:48:13.180Z,17.05
2017-08-12T11:50:41.533Z,17.04
2017-08-12T11:53:09.886Z,17.10
2017-08-12T11:55:38.214Z,17.09
2017-08-12T11:58:06.564Z,17.07
2017-08-12T12:00:34.950Z,17.07
2017-08-12T12:03:03.313Z,17.11
2017-08-12T12:05:31.654Z,17.11
2017-08-12T12:08:00.794Z,17.12
2017-08-12T12:10:29.141Z,16.89
2017-08-12T12:12:57.469Z,16.89
2017-08-12T12:15:25.826Z,16.90
2017-08-12T12:17:54.157Z,16.90
2017-08-12T12:20:23.282Z,16.95
2017-08-12T12:22:51.615Z,16.97
2017-08-12T12:25:19.979Z,17.06
2017-08-12T12:27:48.332Z,17.10
2017-08-12T12:30:16.686Z,17.17
2017-08-12T12:32:45.805Z,17.15
2017-08-12T12:35:15.516Z,17.09
2017-08-12T12:37:43.855Z,17.10
2017-08-12T12:40:12.169Z,17.19
2017-08-12T12:42:40.844Z,17.31
2017-08-12T12:45:09.193Z,17.35
2017-08-12T12:47:37.537Z,17.43
2017-08-12T12:50:05.912Z,17.43
2017-08-12T12:52:34.266Z,17.45
2017-08-12T12:55:02.602Z,17.52
2017-08-12T12:57:30.941Z,17.59
2017-08-12T12:59:59.298Z,17.57
2017-08-12T13:02:27.675Z,17.57
2017-08-12T13:04:56.034Z,17.71
2017-08-12T13:07:24.423Z,17.63
2017-08-12T13:09:52.757Z,17.57
2017-08-12T13:12:21.133Z,17.60
2017-08-12T13:14:49.482Z,17.60
2017-08-12T13:17:18.193Z,17.58
2017-08-12T13:19:46.544Z,17.67
2017-08-12T13:22:14.872Z,17.72
2017-08-12T13:24:43.245Z,17.76
2017-08-12T13:27:11.581Z,17.72
2017-08-12T13:29:40.721Z,17.66
2017-08-12T13:32:09.086Z,17.49
2017-08-12T13:34:37.757Z,17.45
2017-08-12T13:37:06.099Z,17.43
2017-08-12T13:39:34.432Z,17.42
2017-08-12T13:42:02.834Z,17.44
2017-08-12T13:44:31.446Z,17.55
2017-08-12T13:46:59.803Z,17.61
2017-08-12T13:49:28.140Z,17.56
2017-08-12T13:51:56.989Z,17.60
2017-08-12T13:54:25.324Z,17.67
2017-08-12T13:56:53.661Z,17.62
2017-08-12T13:59:22.782Z,17.61
2017-08-12T14:01:51.115Z,17.59
2017-08-12T14:04:19.842Z,17.55
2017-08-12T14:06:48.173Z,17.54
2017-08-12T14:09:16.549Z,17.58
2017-08-12T14:11:44.902Z,17.62
2017-08-12T14:14:13.249Z,17.63
2017-08-12T14:16:42.372Z,17.64
2017-08-12T14:19:10.721Z,17.70
2017-08-12T14:21:39.097Z,17.62
2017-08-12T14:24:07.485Z,17.69
2017-08-12T14:26:35.840Z,17.73
2017-08-12T14:29:04.203Z,17.77
2017-08-12T14:31:32.527Z,17.93
2017-08-12T14:34:01.624Z,18.01
2017-08-12T14:36:29.966Z,18.03
2017-08-12T14:38:58.283Z,18.16
2017-08-12T14:41:27.389Z,18.03
2017-08-12T14:43:55.728Z,17.97
2017-08-12T14:46:24.385Z,17.91
2017-08-12T14:48:52.730Z,17.88
2017-08-12T14:51:21.078Z,17.92
2017-08-12T14:53:49.482Z,17.91
2017-08-12T14:56:18.591Z,17.83
2017-08-12T14:58:46.962Z,17.88
2017-08-12T15:01:15.291Z,17.87
2017-08-12T15:03:44.024Z,17.89
2017-08-12T15:06:12.372Z,17.89
2017-08-12T15:08:41.269Z,17.99
2017-08-12T15:11:09.628Z,18.04
2017-08-12T15:13:37.984Z,18.07
2017-08-12T15:16:06.338Z,18.04
2017-08-12T15:18:34.676Z,18.07
2017-08-12T15:21:03.306Z,18.09
2017-08-12T15:23:31.660Z,18.19
2017-08-12T15:26:11.523Z,18.27
2017-08-12T15:28:40.419Z,18.31
2017-08-12T15:31:08.782Z,18.33
2017-08-12T15:33:37.131Z,18.42
2017-08-12T15:36:05.476Z,18.46
2017-08-12T15:38:33.815Z,18.32
2017-08-12T15:41:02.189Z,18.37
2017-08-12T15:43:30.943Z,18.34
2017-08-12T15:45:59.258Z,18.30
2017-08-12T15:48:27.588Z,18.22
2017-08-12T15:50:56.234Z,18.18
2017-08-12T15:53:24.573Z,18.14
2017-08-12T15:55:52.917Z,18.20
2017-08-12T15:58:21.299Z,18.17
2017-08-12T16:00:49.673Z,18.14
2017-08-12T16:03:18.022Z,18.21
2017-08-12T16:05:46.359Z,18.20
2017-08-12T16:08:15.379Z,18.22
2017-08-12T16:10:43.707Z,18.21
2017-08-12T16:13:12.835Z,18.19
2017-08-12T16:15:41.165Z,18.22
2017-08-12T16:18:09.954Z,18.12
2017-08-12T16:20:38.287Z,18.14
2017-08-12T16:23:06.632Z,18.10
2017-08-12T16:25:34.990Z,18.09
2017-08-12T16:28:03.325Z,18.08
2017-08-12T16:30:31.672Z,18.09
2017-08-12T16:33:00.770Z,18.10
2017-08-12T16:35:29.468Z,18.10
2017-08-12T16:37:57.813Z,18.11
2017-08-12T16:40:26.150Z,18.22
2017-08-12T16:42:54.499Z,18.18
2017-08-12T16:45:22.840Z,18.27
2017-08-12T16:47:51.203Z,18.30
2017-08-12T16:50:19.967Z,18.24
2017-08-12T16:52:48.275Z,18.28
2017-08-12T16:55:16.628Z,18.24
2017-08-12T16:57:44.963Z,18.27
2017-08-12T17:00:13.808Z,18.33
2017-08-12T17:02:42.220Z,18.30
2017-08-12T17:05:10.586Z,18.34
2017-08-12T17:07:38.933Z,18.30
2017-08-12T17:10:07.273Z,18.26
2017-08-12T17:12:36.393Z,18.32
2017-08-12T17:15:04.742Z,18.32
2017-08-12T17:17:33.488Z,18.33
2017-08-12T17:20:01.831Z,18.38
2017-08-12T17:22:30.189Z,18.44
2017-08-12T17:24:58.549Z,18.48
2017-08-12T17:27:26.900Z,18.38
2017-08-12T17:29:55.243Z,18.31
2017-08-12T17:32:24.339Z,18.23
2017-08-12T17:34:53.023Z,18.22
2017-08-12T17:37:21.373Z,18.23
2017-08-12T17:39:49.718Z,18.22
2017-08-12T17:42:18.060Z,18.18
2017-08-12T17:44:46.394Z,18.14
2017-08-12T17:47:14.783Z,18.01
2017-08-12T17:49:43.110Z,18.08
2017-08-12T17:52:11.717Z,18.07
2017-08-12T17:54:40.072Z,18.10
2017-08-12T17:57:08.411Z,18.10
2017-08-12T17:59:36.764Z,18.04
2017-08-12T18:02:05.086Z,18.03
2017-08-12T18:04:33.426Z,18.06
2017-08-12T18:07:01.761Z,18.02
2017-08-12T18:09:30.108Z,18.00
2017-08-12T18:11:58.448Z,18.01
2017-08-12T18:14:27.708Z,17.94
2017-08-12T18:16:56.081Z,17.92
2017-08-12T18:19:24.440Z,17.91
2017-08-12T18:21:52.834Z,17.85
2017-08-12T18:24:21.166Z,17.85
2017-08-12T18:26:49.531Z,17.88
2017-08-12T18:29:17.887Z,17.76
2017-08-12T18:31:46.636Z,17.73
2017-08-12T18:34:14.981Z,17.75
2017-08-12T18:36:43.359Z,17.71
2017-08-12T18:39:14.592Z,17.74
2017-08-12T18:41:43.364Z,17.69
2017-08-12T18:44:11.690Z,17.71
2017-08-12T18:46:40.040Z,17.73
2017-08-12T18:49:08.371Z,17.75
2017-08-12T18:51:37.493Z,17.71
2017-08-12T18:54:05.821Z,17.60
2017-08-12T18:56:34.193Z,17.59
2017-08-12T18:59:02.542Z,17.50
2017-08-12T19:01:30.882Z,17.51
2017-08-12T19:03:59.258Z,17.54
2017-08-12T19:06:29.731Z,17.58
2017-08-12T19:08:58.188Z,17.59
2017-08-12T19:11:26.504Z,17.58
2017-08-12T19:13:55.880Z,17.62
2017-08-12T19:16:24.217Z,17.57
2017-08-12T19:18:52.588Z,17.55
2017-08-12T19:21:20.946Z,17.54
2017-08-12T19:23:50.108Z,17.50
2017-08-12T19:26:18.571Z,17.53
2017-08-12T19:28:46.990Z,17.56
2017-08-12T19:31:15.939Z,17.51
2017-08-12T19:33:44.275Z,17.51
2017-08-12T19:36:12.641Z,17.51
2017-08-12T19:38:41.907Z,17.53
2017-08-12T19:41:11.981Z,17.55
2017-08-12T19:43:41.106Z,17.57
2017-08-12T19:46:09.437Z,17.52
2017-08-12T19:48:37.816Z,17.48
2017-08-12T19:51:06.164Z,17.42
2017-08-12T19:53:34.517Z,17.43
2017-08-12T19:56:02.861Z,17.45
2017-08-12T19:58:31.206Z,17.45
2017-08-12T20:00:59.584Z,17.44
2017-08-12T20:03:27.971Z,17.40
2017-08-12T20:05:56.385Z,17.41
2017-08-12T20:08:25.513Z,17.37
2017-08-12T20:10:53.860Z,17.40
2017-08-12T20:13:22.214Z,17.44
2017-08-12T20:15:50.581Z,17.42
2017-08-12T20:18:18.944Z,17.47
2017-08-12T20:20:47.280Z,17.45
2017-08-12T20:23:15.994Z,17.49
2017-08-12T20:25:44.363Z,17.52
2017-08-12T20:28:13.497Z,17.47
2017-08-12T20:30:42.151Z,17.47
2017-08-12T20:33:11.322Z,17.44
2017-08-12T20:35:39.765Z,17.48
2017-08-12T20:38:08.113Z,17.47
2017-08-12T20:40:36.461Z,17.50
2017-08-12T20:43:04.808Z,17.47
2017-08-12T20:45:33.568Z,17.46
2017-08-12T20:48:02.357Z,17.48
2017-08-12T20:50:30.702Z,17.48
2017-08-12T20:52:59.053Z,17.48
2017-08-12T20:55:27.442Z,17.42
2017-08-12T20:57:55.781Z,17.42
2017-08-12T21:00:24.151Z,17.40
2017-08-12T21:02:52.514Z,17.42
2017-08-12T21:05:21.609Z,17.44
2017-08-12T21:07:49.979Z,17.42
2017-08-12T21:10:18.342Z,17.40
2017-08-12T21:12:46.707Z,17.41
2017-08-12T21:15:15.079Z,17.41
2017-08-12T21:17:43.729Z,17.45
2017-08-12T21:20:12.841Z,17.45
2017-08-12T21:22:41.188Z,17.44
2017-08-12T21:25:09.547Z,17.40
2017-08-12T21:27:37.894Z,17.41
2017-08-12T21:30:06.280Z,17.41
2017-08-12T21:32:34.610Z,17.40
2017-08-12T21:35:03.749Z,17.36
2017-08-12T21:37:32.101Z,17.35
2017-08-12T21:40:00.453Z,17.41
2017-08-12T21:42:28.862Z,17.41
2017-08-12T21:44:57.183Z,17.38
2017-08-12T21:47:25.531Z,17.37
2017-08-12T21:49:53.852Z,17.37
2017-08-12T21:52:23.428Z,17.42
2017-08-12T21:54:51.763Z,17.41
2017-08-12T21:57:20.097Z,17.34
2017-08-12T21:59:48.970Z,17.34
2017-08-12T22:02:17.312Z,17.33
2017-08-12T22:04:45.729Z,17.33
2017-08-12T22:07:14.056Z,17.35
2017-08-12T22:09:42.660Z,17.39
2017-08-12T22:12:10.987Z,17.40
2017-08-12T22:14:39.329Z,17.37
2017-08-12T22:17:07.680Z,17.40
2017-08-12T22:19:36.025Z,17.36
2017-08-12T22:22:04.384Z,17.35
2017-08-12T22:24:32.718Z,17.33
2017-08-12T22:27:01.533Z,17.25
2017-08-12T22:29:29.929Z,17.28
2017-08-12T22:31:58.248Z,17.31
2017-08-12T22:34:26.589Z,17.28
2017-08-12T22:36:54.927Z,17.27
2017-08-12T22:39:23.289Z,17.29
2017-08-12T22:41:51.612Z,17.33
2017-08-12T22:44:19.979Z,17.34
2017-08-12T22:46:48.339Z,17.34
2017-08-12T22:49:16.688Z,17.34
2017-08-12T22:51:45.042Z,17.33
2017-08-12T22:54:13.362Z,17.27
2017-08-12T22:56:41.718Z,17.33
2017-08-12T22:59:10.055Z,17.35
2017-08-12T23:01:39.471Z,17.41
2017-08-12T23:04:07.804Z,17.38
2017-08-12T23:06:36.115Z,17.40
2017-08-12T23:09:04.846Z,17.42
2017-08-12T23:11:33.184Z,17.40
2017-08-12T23:14:01.529Z,17.34
2017-08-12T23:16:29.973Z,17.36
2017-08-12T23:18:59.322Z,17.34
2017-08-12T23:21:27.638Z,17.38
2017-08-12T23:23:56.734Z,17.38
2017-08-12T23:26:25.094Z,17.41
2017-08-12T23:28:53.443Z,17.45
2017-08-12T23:31:21.790Z,17.45
2017-08-12T23:33:50.147Z,17.44
2017-08-12T23:36:19.559Z,17.36
2017-08-12T23:38:47.901Z,17.37
2017-08-12T23:41:16.276Z,17.40
2017-08-12T23:43:44.647Z,17.39
2017-08-12T23:46:12.984Z,17.38
2017-08-12T23:48:42.111Z,17.43
2017-08-12T23:51:10.474Z,17.39
2017-08-12T23:53:39.149Z,17.39
2017-08-12T23:56:07.481Z,17.39
2017-08-12T23:58:35.814Z,17.43
